createdAt,value
2023-02-26T00:01:16.603Z,60.64
2023-02-26T00:04:19.300Z,60.26
2023-02-26T00:07:21.959Z,60.92
2023-02-26T00:10:24.559Z,60.68
2023-02-26T00:13:29.391Z,61.12
2023-02-26T00:16:34.160Z,61.73
2023-02-26T00:19:37.197Z,60.68
2023-02-26T00:22:40.501Z,60.63
2023-02-26T00:25:43.479Z,60.66
2023-02-26T00:28:48.057Z,61.12
2023-02-26T00:31:51.703Z,61.53
2023-02-26T00:34:55.432Z,60.95
2023-02-26T00:38:00.983Z,61.76
2023-02-26T00:41:06.106Z,61.76
2023-02-26T00:44:10.774Z,62.58
2023-02-26T00:47:19.846Z,62.53
2023-02-26T00:50:24.332Z,62.89
2023-02-26T00:53:30.294Z,62.63
2023-02-26T00:56:33.118Z,62.47
2023-02-26T00:59:37.042Z,61.70
2023-02-26T01:02:39.972Z,61.87
2023-02-26T01:05:43.093Z,61.90
2023-02-26T01:08:49.375Z,61.81
2023-02-26T01:11:52.737Z,61.83
2023-02-26T01:14:57.112Z,61.62
2023-02-26T01:18:05.983Z,62.44
2023-02-26T01:21:11.836Z,62.56
2023-02-26T01:24:16.853Z,62.44
2023-02-26T01:27:19.782Z,62.06
2023-02-26T01:30:25.500Z,62.61
2023-02-26T01:33:31.536Z,63.74
2023-02-26T01:36:37.691Z,64.03
2023-02-26T01:39:43.564Z,64.30
2023-02-26T01:42:48.217Z,65.54
2023-02-26T01:45:58.317Z,64.57
2023-02-26T01:49:01.916Z,64.49
2023-02-26T01:52:05.494Z,64.80
2023-02-26T01:55:08.263Z,64.80
2023-02-26T01:58:10.891Z,65.40
2023-02-26T02:01:14.828Z,65.11
2023-02-26T02:04:17.503Z,65.71
2023-02-26T02:07:20.319Z,66.78
2023-02-26T02:10:23.312Z,65.48
2023-02-26T02:13:37.023Z,66.64
2023-02-26T02:16:48.696Z,67.38
2023-02-26T02:20:15.452Z,65.68
2023-02-26T02:23:21.453Z,65.93
2023-02-26T02:27:04.232Z,66.36
2023-02-26T02:30:26.667Z,65.37
2023-02-26T02:33:33.983Z,66.02
2023-02-26T02:36:40.801Z,65.99
2023-02-26T02:39:44.902Z,65.42
2023-02-26T02:42:51.266Z,65.72
2023-02-26T02:45:56.170Z,65.70
2023-02-26T02:49:02.277Z,66.54
2023-02-26T02:52:10.928Z,67.19
2023-02-26T02:55:18.999Z,68.34
2023-02-26T02:58:23.993Z,67.52
2023-02-26T03:01:28.883Z,66.83
2023-02-26T03:04:32.874Z,66.00
2023-02-26T03:07:37.885Z,66.72
2023-02-26T03:10:40.876Z,66.55
2023-02-26T03:13:43.712Z,67.48
2023-02-26T03:17:02.530Z,67.54
2023-02-26T03:20:15.497Z,66.98
2023-02-26T03:23:21.558Z,67.96
2023-02-26T03:26:30.928Z,67.57
2023-02-26T03:29:43.005Z,66.51
2023-02-26T03:32:51.443Z,66.26
2023-02-26T03:35:58.109Z,66.35
2023-02-26T03:39:05.633Z,65.29
2023-02-26T03:42:11.045Z,65.25
2023-02-26T03:45:15.882Z,65.93
2023-02-26T03:48:21.575Z,67.26
2023-02-26T03:51:26.467Z,68.05
2023-02-26T03:54:32.106Z,67.40
2023-02-26T03:57:34.797Z,67.58
2023-02-26T04:00:42.750Z,67.75
2023-02-26T04:03:49.137Z,68.37
2023-02-26T04:06:53.665Z,68.87
2023-02-26T04:09:57.505Z,68.56
2023-02-26T04:13:01.212Z,68.64
2023-02-26T04:16:04.316Z,68.42
2023-02-26T04:19:06.981Z,69.67
2023-02-26T04:22:11.179Z,70.00
2023-02-26T04:25:14.139Z,70.13
2023-02-26T04:28:17.288Z,71.10
2023-02-26T04:31:20.584Z,71.39
2023-02-26T04:34:23.315Z,71.72
2023-02-26T04:37:27.366Z,72.58
2023-02-26T04:40:30.142Z,72.27
2023-02-26T04:43:33.162Z,72.00
2023-02-26T04:46:35.797Z,71.98
2023-02-26T04:49:38.636Z,71.83
2023-02-26T04:52:42.591Z,71.11
2023-02-26T04:55:45.236Z,70.28
2023-02-26T04:58:47.807Z,69.91
2023-02-26T05:01:50.588Z,68.67
2023-02-26T05:04:53.263Z,68.75
2023-02-26T05:07:57.256Z,69.88
2023-02-26T05:10:59.916Z,70.00
2023-02-26T05:14:02.550Z,70.32
2023-02-26T05:17:05.232Z,71.00
2023-02-26T05:20:10.290Z,71.10
2023-02-26T05:23:14.398Z,70.98
2023-02-26T05:26:16.969Z,71.15
2023-02-26T05:29:19.604Z,71.99
2023-02-26T05:32:22.829Z,72.08
2023-02-26T05:35:25.550Z,72.62
2023-02-26T05:38:29.448Z,72.38
2023-02-26T05:41:31.884Z,72.25
2023-02-26T05:44:35.419Z,72.97
2023-02-26T05:47:38.224Z,72.65
2023-02-26T05:50:40.859Z,71.69
2023-02-26T05:53:44.805Z,71.19
2023-02-26T05:56:47.588Z,71.30
2023-02-26T05:59:50.319Z,70.64
2023-02-26T06:02:52.872Z,71.18
2023-02-26T06:05:55.501Z,71.50
2023-02-26T06:09:01.324Z,71.61
2023-02-26T06:12:04.224Z,70.90
2023-02-26T06:15:08.658Z,71.64
2023-02-26T06:18:11.469Z,72.13
2023-02-26T06:21:14.492Z,71.78
2023-02-26T06:24:18.474Z,70.92
2023-02-26T06:27:21.052Z,70.89
2023-02-26T06:30:23.848Z,70.74
2023-02-26T06:33:26.591Z,71.08
2023-02-26T06:36:29.135Z,69.73
2023-02-26T06:39:33.178Z,68.79
2023-02-26T06:42:35.775Z,68.87
2023-02-26T06:45:38.428Z,68.22
2023-02-26T06:48:41.200Z,67.87
2023-02-26T06:51:44.007Z,66.66
2023-02-26T06:54:47.935Z,67.19
2023-02-26T06:57:50.370Z,66.95
2023-02-26T07:00:53.149Z,66.86
2023-02-26T07:03:56.112Z,66.78
2023-02-26T07:06:59.310Z,65.67
2023-02-26T07:10:03.550Z,65.48
2023-02-26T07:13:06.242Z,64.49
2023-02-26T07:16:09.004Z,64.53
2023-02-26T07:19:11.947Z,63.74
2023-02-26T07:22:14.998Z,63.13
2023-02-26T07:25:19.109Z,62.18
2023-02-26T07:28:21.799Z,61.31
2023-02-26T07:31:24.573Z,60.91
2023-02-26T07:34:27.349Z,59.08
2023-02-26T07:37:29.930Z,58.24
2023-02-26T07:40:35.155Z,59.03
2023-02-26T07:43:37.765Z,58.66
2023-02-26T07:46:40.553Z,58.50
2023-02-26T07:49:43.144Z,59.04
2023-02-26T07:52:46.309Z,58.85
2023-02-26T07:55:50.697Z,58.06
2023-02-26T07:58:53.826Z,58.37
2023-02-26T08:01:56.920Z,59.72
2023-02-26T08:04:59.660Z,60.27
2023-02-26T08:08:03.269Z,59.69
2023-02-26T08:11:07.285Z,58.91
2023-02-26T08:14:10.378Z,59.62
2023-02-26T08:17:12.928Z,59.60
2023-02-26T08:20:16.411Z,57.08
2023-02-26T08:23:18.971Z,55.47
2023-02-26T08:26:23.664Z,54.75
2023-02-26T08:29:26.579Z,55.03
2023-02-26T08:32:29.314Z,55.05
2023-02-26T08:35:32.149Z,54.01
2023-02-26T08:38:34.902Z,55.90
2023-02-26T08:41:39.437Z,55.01
2023-02-26T08:44:41.953Z,55.99
2023-02-26T08:47:56.371Z,58.22
2023-02-26T08:50:59.836Z,57.66
2023-02-26T08:54:02.482Z,57.38
2023-02-26T08:57:06.419Z,57.29
2023-02-26T09:00:11.512Z,57.78
2023-02-26T09:03:14.480Z,58.20
2023-02-26T09:06:17.061Z,58.19
2023-02-26T09:09:20.268Z,57.29
2023-02-26T09:12:24.161Z,57.67
2023-02-26T09:15:26.635Z,56.82
2023-02-26T09:18:29.270Z,55.19
2023-02-26T09:21:32.366Z,54.42
2023-02-26T09:24:35.719Z,53.49
2023-02-26T09:27:39.660Z,54.58
2023-02-26T09:30:42.201Z,55.06
2023-02-26T09:33:44.843Z,54.76
2023-02-26T09:36:47.582Z,55.15
2023-02-26T09:39:50.076Z,56.33
2023-02-26T09:43:03.504Z,56.20
2023-02-26T09:46:10.993Z,56.51
2023-02-26T09:49:29.991Z,56.55
2023-02-26T09:52:36.954Z,55.96
2023-02-26T09:55:43.592Z,56.94
2023-02-26T09:58:47.853Z,56.03
2023-02-26T10:01:57.667Z,56.50
2023-02-26T10:05:07.438Z,56.58
2023-02-26T10:08:18.330Z,57.72
2023-02-26T10:11:27.197Z,57.98
2023-02-26T10:14:34.862Z,58.11
2023-02-26T10:17:47.924Z,57.35
2023-02-26T10:20:56.427Z,56.76
2023-02-26T10:24:06.116Z,55.71
2023-02-26T10:27:13.946Z,56.33
2023-02-26T10:30:24.220Z,57.35
2023-02-26T10:33:34.106Z,56.41
2023-02-26T10:36:49.480Z,55.80
2023-02-26T10:39:56.903Z,55.98
2023-02-26T10:43:01.379Z,54.89
2023-02-26T10:46:17.375Z,54.34
2023-02-26T10:49:36.625Z,54.32
2023-02-26T10:52:39.805Z,54.26
2023-02-26T10:55:44.648Z,53.88
2023-02-26T10:58:47.520Z,54.41
2023-02-26T11:01:52.229Z,53.72
2023-02-26T11:05:06.924Z,54.14
2023-02-26T11:08:14.707Z,52.70
2023-02-26T11:11:41.279Z,51.98
2023-02-26T11:14:45.013Z,52.36
2023-02-26T11:17:49.765Z,51.31
2023-02-26T11:20:56.079Z,50.64
2023-02-26T11:24:00.843Z,50.71
2023-02-26T11:27:05.572Z,49.25
2023-02-26T11:30:19.793Z,50.29
2023-02-26T11:33:36.480Z,51.83
2023-02-26T11:36:42.166Z,52.57
2023-02-26T11:39:47.230Z,52.30
2023-02-26T11:42:55.356Z,53.29
2023-02-26T11:46:00.672Z,51.38
2023-02-26T11:49:04.814Z,52.16
2023-02-26T11:52:18.640Z,51.71
2023-02-26T11:55:22.993Z,51.63
2023-02-26T11:58:26.150Z,51.31
2023-02-26T12:01:30.368Z,52.42
2023-02-26T12:04:34.334Z,53.69
2023-02-26T12:07:37.171Z,55.75
2023-02-26T12:10:44.059Z,55.36
2023-02-26T12:13:58.873Z,53.78
2023-02-26T12:17:09.660Z,52.47
2023-02-26T12:20:20.558Z,51.67
2023-02-26T12:23:47.108Z,51.30
2023-02-26T12:26:56.034Z,52.36
2023-02-26T12:30:09.689Z,53.43
2023-02-26T12:33:21.081Z,53.64
2023-02-26T12:36:47.994Z,54.68
2023-02-26T12:39:59.448Z,54.55
2023-02-26T12:43:07.327Z,53.32
2023-02-26T12:46:18.131Z,51.95
2023-02-26T12:49:41.051Z,51.77
2023-02-26T12:53:10.784Z,49.73
2023-02-26T12:57:01.477Z,50.70
2023-02-26T13:00:15.264Z,50.27
2023-02-26T13:03:49.520Z,49.13
2023-02-26T13:07:10.588Z,50.07
2023-02-26T13:10:20.576Z,50.01
2023-02-26T13:13:35.379Z,49.12
2023-02-26T13:16:45.952Z,48.65
2023-02-26T13:19:50.776Z,48.05
2023-02-26T13:22:56.790Z,48.53
2023-02-26T13:26:02.228Z,48.06
2023-02-26T13:29:07.475Z,49.45
2023-02-26T13:32:13.894Z,48.49
2023-02-26T13:35:22.741Z,46.43
2023-02-26T13:38:33.621Z,46.44
2023-02-26T13:41:47.782Z,45.57
2023-02-26T13:44:53.174Z,45.92
2023-02-26T13:48:13.575Z,45.99
2023-02-26T13:51:29.043Z,45.56
2023-02-26T13:54:43.712Z,44.19
2023-02-26T13:57:52.929Z,40.46
2023-02-26T14:01:00.328Z,37.91
2023-02-26T14:04:25.133Z,38.82
2023-02-26T14:07:49.457Z,39.99
2023-02-26T14:10:58.165Z,43.47
2023-02-26T14:14:13.875Z,44.36
2023-02-26T14:17:27.872Z,44.52
2023-02-26T14:20:31.843Z,43.90
2023-02-26T14:23:38.029Z,38.65
2023-02-26T14:26:46.431Z,31.81
2023-02-26T14:30:18.091Z,30.69
2023-02-26T14:33:28.646Z,33.55
2023-02-26T14:36:36.502Z,40.00
2023-02-26T14:39:41.658Z,44.86
2023-02-26T14:46:14.488Z,40.93
2023-02-26T14:49:22.141Z,39.05
2023-02-26T14:52:52.256Z,35.15
2023-02-26T14:56:07.858Z,24.11
2023-02-26T14:59:39.459Z,21.37
2023-02-26T15:02:53.679Z,24.78
2023-02-26T15:06:14.515Z,26.37
2023-02-26T15:09:21.473Z,31.83
2023-02-26T15:12:48.311Z,36.14
2023-02-26T15:15:55.277Z,40.04
2023-02-26T15:19:15.436Z,41.76
2023-02-26T15:22:30.788Z,42.02
2023-02-26T15:25:36.288Z,42.76
2023-02-26T15:28:41.462Z,42.79
2023-02-26T15:31:46.404Z,41.86
2023-02-26T15:34:56.817Z,43.07
2023-02-26T15:38:02.467Z,43.10
2023-02-26T15:41:05.302Z,43.50
2023-02-26T15:44:10.713Z,39.36
2023-02-26T15:47:14.619Z,39.89
2023-02-26T15:50:18.562Z,35.23
2023-02-26T15:53:25.226Z,35.92
2023-02-26T15:56:31.716Z,34.11
2023-02-26T15:59:34.927Z,34.92
2023-02-26T16:02:39.258Z,36.15
2023-02-26T16:05:43.241Z,33.92
2023-02-26T16:08:45.974Z,32.74
2023-02-26T16:11:50.872Z,38.03
2023-02-26T16:14:56.991Z,41.05
2023-02-26T16:18:00.550Z,41.62
2023-02-26T16:21:07.450Z,42.91
2023-02-26T16:24:18.851Z,42.99
2023-02-26T16:27:22.860Z,43.80
2023-02-26T16:30:32.849Z,43.82
2023-02-26T16:33:35.628Z,44.26
2023-02-26T16:36:42.339Z,44.63
2023-02-26T16:39:46.154Z,44.68
2023-02-26T16:42:53.048Z,44.13
2023-02-26T16:45:57.742Z,44.01
2023-02-26T16:49:02.027Z,44.22
2023-02-26T16:52:06.907Z,43.38
2023-02-26T16:55:18.327Z,42.69
2023-02-26T16:58:21.884Z,43.09
2023-02-26T17:01:25.547Z,43.54
2023-02-26T17:04:29.857Z,43.55
2023-02-26T17:07:36.333Z,44.25
2023-02-26T17:10:41.199Z,43.98
2023-02-26T17:13:43.920Z,44.46
2023-02-26T17:16:47.439Z,43.88
2023-02-26T17:19:50.760Z,44.36
2023-02-26T17:22:56.142Z,43.96
2023-02-26T17:26:02.284Z,44.80
2023-02-26T17:29:04.936Z,45.38
2023-02-26T17:35:37.023Z,44.90
2023-02-26T17:38:42.252Z,45.23
2023-02-26T17:41:46.016Z,45.26
2023-02-26T17:44:48.743Z,45.38
2023-02-26T17:47:51.313Z,45.58
2023-02-26T17:50:55.436Z,45.80
2023-02-26T17:53:59.584Z,46.85
2023-02-26T17:57:02.219Z,47.11
2023-02-26T18:00:05.527Z,47.46
2023-02-26T18:03:08.701Z,48.41
2023-02-26T18:06:14.625Z,49.46
2023-02-26T18:09:19.566Z,50.22
2023-02-26T18:12:23.532Z,49.77
2023-02-26T18:15:26.793Z,50.41
2023-02-26T18:18:30.765Z,49.87
2023-02-26T18:21:34.160Z,49.70
2023-02-26T18:24:40.083Z,49.81
2023-02-26T18:27:42.985Z,49.58
2023-02-26T18:30:45.990Z,49.21
2023-02-26T18:33:54.462Z,49.76
2023-02-26T18:36:57.080Z,49.66
2023-02-26T18:40:04.719Z,49.21
2023-02-26T18:43:10.342Z,49.48
2023-02-26T18:46:13.765Z,49.20
2023-02-26T18:49:18.516Z,48.94
2023-02-26T18:52:21.311Z,49.45
2023-02-26T18:55:28.083Z,49.50
2023-02-26T18:58:30.976Z,49.92
2023-02-26T19:01:33.797Z,50.03
2023-02-26T19:04:36.744Z,49.81
2023-02-26T19:07:39.806Z,49.87
2023-02-26T19:10:43.706Z,49.56
2023-02-26T19:13:47.179Z,50.28
2023-02-26T19:16:49.783Z,49.73
2023-02-26T19:19:52.657Z,50.14
2023-02-26T19:22:55.301Z,51.11
2023-02-26T19:25:59.257Z,50.82
2023-02-26T19:29:02.471Z,50.76
2023-02-26T19:32:05.743Z,51.44
2023-02-26T19:35:09.379Z,51.53
2023-02-26T19:38:12.493Z,51.44
2023-02-26T19:41:18.759Z,50.55
2023-02-26T19:44:21.978Z,50.10
2023-02-26T19:47:24.682Z,50.05
2023-02-26T19:50:27.434Z,50.57
2023-02-26T19:53:31.387Z,50.56
2023-02-26T19:56:35.684Z,50.54
2023-02-26T19:59:38.200Z,51.05
2023-02-26T20:02:43.010Z,51.18
2023-02-26T20:05:45.692Z,51.30
2023-02-26T20:08:48.841Z,51.55
2023-02-26T20:11:52.928Z,51.59
2023-02-26T20:14:55.503Z,51.27
2023-02-26T20:17:58.181Z,51.26
2023-02-26T20:21:02.154Z,51.38
2023-02-26T20:24:05.470Z,51.66
2023-02-26T20:27:09.488Z,52.21
2023-02-26T20:30:13.079Z,52.79
2023-02-26T20:33:15.862Z,53.52
2023-02-26T20:36:18.491Z,53.53
2023-02-26T20:39:21.114Z,53.72
2023-02-26T20:42:25.402Z,54.24
2023-02-26T20:45:28.712Z,54.52
2023-02-26T20:48:31.712Z,54.81
2023-02-26T20:51:34.321Z,54.45
2023-02-26T20:54:36.976Z,55.23
2023-02-26T20:57:40.959Z,55.62
2023-02-26T21:00:43.952Z,55.84
2023-02-26T21:03:46.608Z,55.54
2023-02-26T21:06:49.824Z,54.97
2023-02-26T21:09:52.715Z,55.36
2023-02-26T21:12:56.856Z,55.20
2023-02-26T21:15:59.813Z,55.11
2023-02-26T21:19:03.842Z,55.50
2023-02-26T21:22:06.504Z,55.93
2023-02-26T21:25:09.986Z,56.07
2023-02-26T21:28:13.999Z,56.00
2023-02-26T21:31:17.237Z,55.80
2023-02-26T21:34:33.253Z,55.77
2023-02-26T21:37:36.235Z,56.01
2023-02-26T21:40:39.535Z,55.56
2023-02-26T21:43:45.845Z,54.95
2023-02-26T21:46:48.380Z,54.90
2023-02-26T21:49:51.085Z,54.70
2023-02-26T21:52:53.902Z,54.25
2023-02-26T21:55:56.760Z,54.05
2023-02-26T21:59:00.809Z,54.27
2023-02-26T22:02:03.606Z,54.18
2023-02-26T22:05:06.416Z,54.09
2023-02-26T22:11:36.704Z,54.02
2023-02-26T22:14:43.167Z,54.18
2023-02-26T22:17:45.853Z,54.82
2023-02-26T22:20:48.955Z,55.22
2023-02-26T22:23:51.762Z,55.54
2023-02-26T22:26:54.853Z,56.25
2023-02-26T22:29:58.824Z,57.02
2023-02-26T22:33:01.488Z,56.41
2023-02-26T22:36:04.483Z,56.92
2023-02-26T22:39:07.693Z,57.10
2023-02-26T22:42:10.239Z,56.71
2023-02-26T22:45:17.119Z,57.32
2023-02-26T22:48:20.843Z,57.56
2023-02-26T22:51:23.917Z,58.16
2023-02-26T22:54:27.192Z,58.62
2023-02-26T22:57:29.864Z,59.18
2023-02-26T23:00:33.871Z,59.50
2023-02-26T23:03:41.323Z,59.47
2023-02-26T23:06:44.053Z,59.35
2023-02-26T23:09:46.660Z,59.36
2023-02-26T23:12:49.239Z,59.67
2023-02-26T23:15:53.542Z,59.87
2023-02-26T23:18:56.298Z,60.47
2023-02-26T23:21:59.134Z,60.37
2023-02-26T23:25:01.763Z,59.98
2023-02-26T23:28:04.381Z,60.04
2023-02-26T23:31:08.666Z,60.09
2023-02-26T23:34:11.420Z,61.19
2023-02-26T23:37:14.132Z,61.01
2023-02-26T23:40:17.051Z,61.24
2023-02-26T23:43:19.657Z,61.13
2023-02-26T23:46:23.784Z,60.86
2023-02-26T23:49:26.520Z,60.80
2023-02-26T23:52:29.123Z,61.17
2023-02-26T23:55:31.662Z,61.46
2023-02-26T23:58:34.263Z,61.43
